Aeroporto :
LOGIN :

Iscrizione | Disclaimer

   EN    FR    IT 

 










Sommario :    VFR   VFR Marginale   IFR   IFR Intensivo   IFR Molto Intensivo
Visibilità : 
Base nubi : 
>= 8 km
>= 3000ft
5 / 8 km
1000 / 3000 ft
1500m / 5 km
500 / 1000 ft
800 / 1500m
200 / 500 ft
< 800m
< 200 ft
Simboli :   Temporali  Nebbia  Neve Forte  Precipitazioni Forti  Vento > 20 kt
SIGMETs :   Varie  Temporali  Ghiacco  Turbolenza  Onda orograficha  Ceneri Vulcaniche







- Altitudine del aeroporto : 37 ft
- Codice IATA : OLB


LIEO - Olbia Costa Smeralda

ULTIMO METAR :
  • 172150Z VRB01KT CAVOK 04/03 Q1028

METARs OBSOLETI :
  • 172120Z 15002KT CAVOK 03/03 Q1028
  • 172050Z VRB01KT CAVOK 04/03 Q1028
  • 172020Z VRB01KT CAVOK 04/03 Q1028
  • 171950Z VRB01KT CAVOK 05/04 Q1028
  • 171920Z VRB01KT CAVOK 06/05 Q1028

TAF TAF LIEO
Valido dal 17 a 18 ore il 18 a 18 ore UTC


171700Z 1718/1818 VRB04KT CAVOK
TEMPO 1802/1806 4000 BR
BECMG 1810/1812 06010KT
Nessun NOTAM noto per questo aeroporto.
1 SIGMET conosciuto per la FIR Roma (LIRR) :
 
Ceneri vulcaniche
LIRR SIGMET 6 VALID 171759/180000 LIIB
LIRR ROMA FIR VA ERUPTION MT ETNA PSN N3744 E01500 VA CLD OBS AT 1800Z WI N3704 E01425 - N3730 E01404 - N3745 E01500 - N3704 E01425 MOV SW 15KT SFC/FL120 NC FCST AT 0000Z WI N3634 E01325 - N3700 E01300 - N3740 E01349 - N3719 E01415 - N3634 E01325=



MetMap, La meteo Aeronautica in un colpo d'occhio ! - Copyright ORBIFLY Dicembre 2007 - Disclaimer

ORBIFLY MET'MAP TEAM :

Programmazione e sviluppo : Alexandra Zaïnal
Concezione e sviluppo : Baudouin d'Aumeries
Co-Programmazione e sviluppo : Marc-Olivier Méhu
Supporto tecnico e logistico : Manuel Goepfert
Aiuto per la traduzione : Arnaldo La Scala

Contatto : metmap@orbifly.com




FONTI E CREDITI :

   NOAA